sensor_id;sensor_type;location;lat;lon;timestamp;temperature;humidity
46366;DHT22;32073;49.166;8.076;2022-09-03T00:02:24;22.80;38.20
46366;DHT22;32073;49.166;8.076;2022-09-03T00:06:35;22.70;38.20
46366;DHT22;32073;49.166;8.076;2022-09-03T00:11:00;22.80;38.50
46366;DHT22;32073;49.166;8.076;2022-09-03T00:15:09;22.70;38.30
46366;DHT22;32073;49.166;8.076;2022-09-03T00:19:17;22.70;38.40
46366;DHT22;32073;49.166;8.076;2022-09-03T00:23:22;22.70;38.50
46366;DHT22;32073;49.166;8.076;2022-09-03T00:27:26;22.70;38.50
46366;DHT22;32073;49.166;8.076;2022-09-03T00:31:32;22.60;38.60
46366;DHT22;32073;49.166;8.076;2022-09-03T00:39:42;22.70;38.20
46366;DHT22;32073;49.166;8.076;2022-09-03T00:48:22;22.50;38.70
46366;DHT22;32073;49.166;8.076;2022-09-03T00:56:47;22.40;38.80
46366;DHT22;32073;49.166;8.076;2022-09-03T01:00:54;22.40;39.00
46366;DHT22;32073;49.166;8.076;2022-09-03T01:05:10;22.40;38.90
46366;DHT22;32073;49.166;8.076;2022-09-03T01:09:27;22.40;39.10
46366;DHT22;32073;49.166;8.076;2022-09-03T01:23:07;22.30;39.20
46366;DHT22;32073;49.166;8.076;2022-09-03T01:32:47;22.20;39.30
46366;DHT22;32073;49.166;8.076;2022-09-03T01:41:22;22.10;39.60
46366;DHT22;32073;49.166;8.076;2022-09-03T01:45:55;22.00;39.70
46366;DHT22;32073;49.166;8.076;2022-09-03T01:50:14;22.00;39.90
46366;DHT22;32073;49.166;8.076;2022-09-03T02:03:43;21.90;40.90
46366;DHT22;32073;49.166;8.076;2022-09-03T02:08:01;21.80;40.70
46366;DHT22;32073;49.166;8.076;2022-09-03T02:12:14;21.90;41.20
46366;DHT22;32073;49.166;8.076;2022-09-03T02:16:20;21.90;41.00
46366;DHT22;32073;49.166;8.076;2022-09-03T02:20:26;21.80;41.00
46366;DHT22;32073;49.166;8.076;2022-09-03T02:24:28;21.80;41.00
46366;DHT22;32073;49.166;8.076;2022-09-03T02:28:29;21.80;40.80
46366;DHT22;32073;49.166;8.076;2022-09-03T02:32:31;21.80;40.70
46366;DHT22;32073;49.166;8.076;2022-09-03T02:36:35;21.80;40.80
46366;DHT22;32073;49.166;8.076;2022-09-03T02:40:37;21.80;41.30
46366;DHT22;32073;49.166;8.076;2022-09-03T02:44:44;21.80;41.00
46366;DHT22;32073;49.166;8.076;2022-09-03T02:48:47;21.90;41.00
46366;DHT22;32073;49.166;8.076;2022-09-03T02:52:48;21.90;40.80
46366;DHT22;32073;49.166;8.076;2022-09-03T02:56:49;21.90;40.90
46366;DHT22;32073;49.166;8.076;2022-09-03T03:00:51;21.90;41.00
46366;DHT22;32073;49.166;8.076;2022-09-03T03:04:53;21.90;40.90
46366;DHT22;32073;49.166;8.076;2022-09-03T03:08:54;21.90;41.00
46366;DHT22;32073;49.166;8.076;2022-09-03T03:12:56;21.90;41.00
46366;DHT22;32073;49.166;8.076;2022-09-03T03:16:56;21.80;41.00
46366;DHT22;32073;49.166;8.076;2022-09-03T03:21:09;21.80;41.10
46366;DHT22;32073;49.166;8.076;2022-09-03T03:25:10;21.90;41.20
46366;DHT22;32073;49.166;8.076;2022-09-03T03:29:15;21.90;41.20
46366;DHT22;32073;49.166;8.076;2022-09-03T03:33:17;21.80;41.20
46366;DHT22;32073;49.166;8.076;2022-09-03T03:37:18;21.90;41.20
46366;DHT22;32073;49.166;8.076;2022-09-03T03:41:21;21.80;41.10
46366;DHT22;32073;49.166;8.076;2022-09-03T03:45:23;21.80;41.20
46366;DHT22;32073;49.166;8.076;2022-09-03T03:49:24;21.80;41.20
46366;DHT22;32073;49.166;8.076;2022-09-03T03:53:24;21.80;41.20
46366;DHT22;32073;49.166;8.076;2022-09-03T03:57:26;21.80;41.30
46366;DHT22;32073;49.166;8.076;2022-09-03T04:01:29;21.70;41.20
46366;DHT22;32073;49.166;8.076;2022-09-03T04:05:30;21.80;41.40
46366;DHT22;32073;49.166;8.076;2022-09-03T04:09:31;21.70;41.50
46366;DHT22;32073;49.166;8.076;2022-09-03T04:13:34;21.70;41.40
46366;DHT22;32073;49.166;8.076;2022-09-03T04:17:35;21.70;41.50
46366;DHT22;32073;49.166;8.076;2022-09-03T04:21:36;21.70;41.60
46366;DHT22;32073;49.166;8.076;2022-09-03T04:25:37;21.70;41.80
46366;DHT22;32073;49.166;8.076;2022-09-03T04:29:37;21.80;42.10
46366;DHT22;32073;49.166;8.076;2022-09-03T04:33:39;21.70;42.20
46366;DHT22;32073;49.166;8.076;2022-09-03T04:37:40;21.70;42.30
46366;DHT22;32073;49.166;8.076;2022-09-03T04:41:40;21.70;42.40
46366;DHT22;32073;49.166;8.076;2022-09-03T04:45:41;21.70;42.50
46366;DHT22;32073;49.166;8.076;2022-09-03T04:49:42;21.70;42.90
46366;DHT22;32073;49.166;8.076;2022-09-03T04:53:44;21.70;42.70
46366;DHT22;32073;49.166;8.076;2022-09-03T04:57:46;21.70;42.70
46366;DHT22;32073;49.166;8.076;2022-09-03T05:01:46;21.70;42.50
46366;DHT22;32073;49.166;8.076;2022-09-03T05:05:54;21.60;42.50
46366;DHT22;32073;49.166;8.076;2022-09-03T05:09:55;21.60;42.60
46366;DHT22;32073;49.166;8.076;2022-09-03T05:13:57;21.50;42.50
46366;DHT22;32073;49.166;8.076;2022-09-03T05:17:59;21.50;42.70
46366;DHT22;32073;49.166;8.076;2022-09-03T05:22:04;21.50;43.00
46366;DHT22;32073;49.166;8.076;2022-09-03T05:26:07;21.50;43.80
46366;DHT22;32073;49.166;8.076;2022-09-03T05:30:09;21.60;44.40
46366;DHT22;32073;49.166;8.076;2022-09-03T05:34:10;21.50;44.20
46366;DHT22;32073;49.166;8.076;2022-09-03T05:38:11;21.50;45.00
46366;DHT22;32073;49.166;8.076;2022-09-03T05:42:12;21.60;45.20
46366;DHT22;32073;49.166;8.076;2022-09-03T05:46:14;21.60;45.60
46366;DHT22;32073;49.166;8.076;2022-09-03T05:50:17;21.60;45.90
46366;DHT22;32073;49.166;8.076;2022-09-03T05:54:18;21.50;46.20
46366;DHT22;32073;49.166;8.076;2022-09-03T05:58:19;21.50;45.80
46366;DHT22;32073;49.166;8.076;2022-09-03T06:02:19;21.40;47.10
46366;DHT22;32073;49.166;8.076;2022-09-03T06:06:21;21.40;46.60
46366;DHT22;32073;49.166;8.076;2022-09-03T06:10:24;21.30;47.40
46366;DHT22;32073;49.166;8.076;2022-09-03T06:14:25;21.20;47.80
46366;DHT22;32073;49.166;8.076;2022-09-03T06:18:26;21.10;48.00
46366;DHT22;32073;49.166;8.076;2022-09-03T06:22:27;21.00;48.20
46366;DHT22;32073;49.166;8.076;2022-09-03T06:26:30;21.00;48.20
46366;DHT22;32073;49.166;8.076;2022-09-03T06:30:31;21.00;49.10
46366;DHT22;32073;49.166;8.076;2022-09-03T06:34:31;21.00;49.10
46366;DHT22;32073;49.166;8.076;2022-09-03T06:38:34;20.90;49.70
46366;DHT22;32073;49.166;8.076;2022-09-03T06:42:35;20.90;49.70
46366;DHT22;32073;49.166;8.076;2022-09-03T06:46:38;20.90;49.80
46366;DHT22;32073;49.166;8.076;2022-09-03T06:50:41;20.90;50.40
46366;DHT22;32073;49.166;8.076;2022-09-03T06:54:42;20.90;50.30
46366;DHT22;32073;49.166;8.076;2022-09-03T06:58:46;20.90;50.20
46366;DHT22;32073;49.166;8.076;2022-09-03T07:02:47;20.90;51.00
46366;DHT22;32073;49.166;8.076;2022-09-03T07:06:57;21.00;50.40
46366;DHT22;32073;49.166;8.076;2022-09-03T07:10:59;20.90;50.20
46366;DHT22;32073;49.166;8.076;2022-09-03T07:15:02;20.90;50.60
46366;DHT22;32073;49.166;8.076;2022-09-03T07:19:04;20.90;50.80
46366;DHT22;32073;49.166;8.076;2022-09-03T07:23:06;20.90;50.80
46366;DHT22;32073;49.166;8.076;2022-09-03T07:27:07;20.90;50.90
46366;DHT22;32073;49.166;8.076;2022-09-03T07:31:11;20.80;50.90
46366;DHT22;32073;49.166;8.076;2022-09-03T07:35:14;20.70;51.20
46366;DHT22;32073;49.166;8.076;2022-09-03T07:39:15;20.70;51.30
46366;DHT22;32073;49.166;8.076;2022-09-03T07:43:17;20.70;51.30
46366;DHT22;32073;49.166;8.076;2022-09-03T07:47:17;20.60;51.40
46366;DHT22;32073;49.166;8.076;2022-09-03T07:51:21;20.70;51.60
46366;DHT22;32073;49.166;8.076;2022-09-03T07:55:25;20.60;51.70
46366;DHT22;32073;49.166;8.076;2022-09-03T07:59:27;20.60;51.90
46366;DHT22;32073;49.166;8.076;2022-09-03T08:03:28;20.60;52.20
46366;DHT22;32073;49.166;8.076;2022-09-03T08:07:29;20.60;52.10
46366;DHT22;32073;49.166;8.076;2022-09-03T08:11:30;20.60;52.20
46366;DHT22;32073;49.166;8.076;2022-09-03T08:15:33;20.60;52.20
46366;DHT22;32073;49.166;8.076;2022-09-03T08:19:36;20.70;52.50
46366;DHT22;32073;49.166;8.076;2022-09-03T08:23:38;20.60;52.60
46366;DHT22;32073;49.166;8.076;2022-09-03T08:27:39;20.70;53.10
46366;DHT22;32073;49.166;8.076;2022-09-03T08:31:40;20.60;53.30
46366;DHT22;32073;49.166;8.076;2022-09-03T08:35:40;20.60;53.60
46366;DHT22;32073;49.166;8.076;2022-09-03T08:39:41;20.60;54.10
46366;DHT22;32073;49.166;8.076;2022-09-03T08:44:15;20.80;54.40
46366;DHT22;32073;49.166;8.076;2022-09-03T08:48:21;21.00;54.80
46366;DHT22;32073;49.166;8.076;2022-09-03T08:52:36;21.20;54.80
46366;DHT22;32073;49.166;8.076;2022-09-03T08:56:39;21.40;54.80
46366;DHT22;32073;49.166;8.076;2022-09-03T09:06:18;21.80;55.20
46366;DHT22;32073;49.166;8.076;2022-09-03T09:10:33;22.00;55.10
46366;DHT22;32073;49.166;8.076;2022-09-03T09:19:37;22.40;56.00
46366;DHT22;32073;49.166;8.076;2022-09-03T09:23:48;22.50;56.00
46366;DHT22;32073;49.166;8.076;2022-09-03T09:27:55;22.50;55.90
46366;DHT22;32073;49.166;8.076;2022-09-03T09:31:59;22.60;55.40
46366;DHT22;32073;49.166;8.076;2022-09-03T09:36:05;22.60;55.00
46366;DHT22;32073;49.166;8.076;2022-09-03T09:40:09;22.60;55.60
46366;DHT22;32073;49.166;8.076;2022-09-03T09:44:19;22.50;55.50
46366;DHT22;32073;49.166;8.076;2022-09-03T09:52:25;22.40;55.70
46366;DHT22;32073;49.166;8.076;2022-09-03T09:56:28;22.30;56.30
46366;DHT22;32073;49.166;8.076;2022-09-03T10:00:29;22.30;56.80
46366;DHT22;32073;49.166;8.076;2022-09-03T10:04:33;22.20;57.80
46366;DHT22;32073;49.166;8.076;2022-09-03T10:08:34;22.10;57.70
46366;DHT22;32073;49.166;8.076;2022-09-03T10:12:39;22.00;58.70
46366;DHT22;32073;49.166;8.076;2022-09-03T10:16:48;21.90;59.30
46366;DHT22;32073;49.166;8.076;2022-09-03T10:26:03;21.90;59.40
46366;DHT22;32073;49.166;8.076;2022-09-03T10:30:08;22.00;59.50
46366;DHT22;32073;49.166;8.076;2022-09-03T10:38:38;22.30;60.40
46366;DHT22;32073;49.166;8.076;2022-09-03T10:52:21;23.00;58.70
46366;DHT22;32073;49.166;8.076;2022-09-03T10:56:37;23.20;59.20
46366;DHT22;32073;49.166;8.076;2022-09-03T11:00:52;23.30;59.10
46366;DHT22;32073;49.166;8.076;2022-09-03T11:05:04;23.40;58.70
46366;DHT22;32073;49.166;8.076;2022-09-03T11:13:55;23.60;59.20
46366;DHT22;32073;49.166;8.076;2022-09-03T11:22:19;23.90;59.70
46366;DHT22;32073;49.166;8.076;2022-09-03T11:26:23;24.10;59.10
46366;DHT22;32073;49.166;8.076;2022-09-03T11:34:50;24.40;59.20
46366;DHT22;32073;49.166;8.076;2022-09-03T11:38:51;24.50;58.90
46366;DHT22;32073;49.166;8.076;2022-09-03T11:42:52;24.70;58.60
46366;DHT22;32073;49.166;8.076;2022-09-03T11:46:57;24.80;58.60
46366;DHT22;32073;49.166;8.076;2022-09-03T11:50:58;24.90;58.60
46366;DHT22;32073;49.166;8.076;2022-09-03T11:54:59;25.00;57.80
46366;DHT22;32073;49.166;8.076;2022-09-03T12:03:06;25.10;58.10
46366;DHT22;32073;49.166;8.076;2022-09-03T12:17:08;25.50;58.00
46366;DHT22;32073;49.166;8.076;2022-09-03T12:21:22;25.60;57.30
46366;DHT22;32073;49.166;8.076;2022-09-03T12:25:23;25.60;57.10
46366;DHT22;32073;49.166;8.076;2022-09-03T12:29:26;25.70;57.00
46366;DHT22;32073;49.166;8.076;2022-09-03T12:33:28;25.70;56.90
46366;DHT22;32073;49.166;8.076;2022-09-03T12:37:32;25.80;57.10
46366;DHT22;32073;49.166;8.076;2022-09-03T12:41:35;25.80;57.00
46366;DHT22;32073;49.166;8.076;2022-09-03T12:45:42;25.90;57.20
46366;DHT22;32073;49.166;8.076;2022-09-03T12:49:46;25.90;57.30
46366;DHT22;32073;49.166;8.076;2022-09-03T12:53:50;26.00;57.50
46366;DHT22;32073;49.166;8.076;2022-09-03T12:57:56;26.10;57.50
46366;DHT22;32073;49.166;8.076;2022-09-03T13:02:23;26.20;57.50
46366;DHT22;32073;49.166;8.076;2022-09-03T13:06:43;26.30;57.10
46366;DHT22;32073;49.166;8.076;2022-09-03T13:10:55;26.40;57.20
46366;DHT22;32073;49.166;8.076;2022-09-03T13:15:05;26.60;56.90
46366;DHT22;32073;49.166;8.076;2022-09-03T13:19:57;26.70;56.90
46366;DHT22;32073;49.166;8.076;2022-09-03T13:23:46;26.80;56.60
46366;DHT22;32073;49.166;8.076;2022-09-03T13:28:25;26.70;56.10
46366;DHT22;32073;49.166;8.076;2022-09-03T13:32:41;26.70;56.20
46366;DHT22;32073;49.166;8.076;2022-09-03T13:41:49;26.40;56.30
46366;DHT22;32073;49.166;8.076;2022-09-03T13:46:06;26.20;56.50
46366;DHT22;32073;49.166;8.076;2022-09-03T13:50:17;26.10;56.70
46366;DHT22;32073;49.166;8.076;2022-09-03T13:54:34;25.90;56.60
46366;DHT22;32073;49.166;8.076;2022-09-03T13:58:44;25.80;57.30
46366;DHT22;32073;49.166;8.076;2022-09-03T14:07:23;25.50;57.10
46366;DHT22;32073;49.166;8.076;2022-09-03T14:11:52;25.30;57.30
46366;DHT22;32073;49.166;8.076;2022-09-03T14:20:45;25.00;58.50
46366;DHT22;32073;49.166;8.076;2022-09-03T14:24:51;24.90;58.70
46366;DHT22;32073;49.166;8.076;2022-09-03T14:29:01;24.90;58.90
46366;DHT22;32073;49.166;8.076;2022-09-03T14:33:21;24.90;59.30
46366;DHT22;32073;49.166;8.076;2022-09-03T14:55:02;24.80;59.00
46366;DHT22;32073;49.166;8.076;2022-09-03T14:59:33;24.60;59.70
46366;DHT22;32073;49.166;8.076;2022-09-03T15:12:38;24.70;60.20
46366;DHT22;32073;49.166;8.076;2022-09-03T15:17:13;24.60;60.30
46366;DHT22;32073;49.166;8.076;2022-09-03T15:30:21;24.60;60.90
46366;DHT22;32073;49.166;8.076;2022-09-03T15:39:24;24.50;60.90
46366;DHT22;32073;49.166;8.076;2022-09-03T15:43:31;24.50;60.90
46366;DHT22;32073;49.166;8.076;2022-09-03T16:00:28;24.50;62.00
46366;DHT22;32073;49.166;8.076;2022-09-03T16:13:39;24.90;62.90
46366;DHT22;32073;49.166;8.076;2022-09-03T16:22:20;25.20;61.70
46366;DHT22;32073;49.166;8.076;2022-09-03T16:44:18;25.30;60.00
46366;DHT22;32073;49.166;8.076;2022-09-03T16:53:48;25.10;59.80
46366;DHT22;32073;49.166;8.076;2022-09-03T16:58:33;25.00;59.70
46366;DHT22;32073;49.166;8.076;2022-09-03T17:03:20;24.90;59.80
46366;DHT22;32073;49.166;8.076;2022-09-03T17:12:13;24.70;59.90
46366;DHT22;32073;49.166;8.076;2022-09-03T17:30:38;24.40;60.50
46366;DHT22;32073;49.166;8.076;2022-09-03T17:35:12;24.30;60.40
46366;DHT22;32073;49.166;8.076;2022-09-03T17:44:21;24.10;60.80
46366;DHT22;32073;49.166;8.076;2022-09-03T17:52:58;23.90;60.70
46366;DHT22;32073;49.166;8.076;2022-09-03T17:57:16;23.90;61.10
46366;DHT22;32073;49.166;8.076;2022-09-03T18:01:22;23.80;61.20
46366;DHT22;32073;49.166;8.076;2022-09-03T18:14:34;23.50;61.20
46366;DHT22;32073;49.166;8.076;2022-09-03T18:18:45;23.50;61.40
46366;DHT22;32073;49.166;8.076;2022-09-03T18:22:52;23.40;61.40
46366;DHT22;32073;49.166;8.076;2022-09-03T18:27:26;23.30;61.40
46366;DHT22;32073;49.166;8.076;2022-09-03T18:32:00;23.30;61.40
46366;DHT22;32073;49.166;8.076;2022-09-03T18:36:20;23.20;61.50
46366;DHT22;32073;49.166;8.076;2022-09-03T18:45:42;23.20;62.70
46366;DHT22;32073;49.166;8.076;2022-09-03T18:50:28;23.20;62.90
46366;DHT22;32073;49.166;8.076;2022-09-03T19:00:05;23.10;62.00
46366;DHT22;32073;49.166;8.076;2022-09-03T19:14:05;22.90;62.00
46366;DHT22;32073;49.166;8.076;2022-09-03T19:23:19;22.80;62.70
46366;DHT22;32073;49.166;8.076;2022-09-03T19:32:14;22.90;62.40
46366;DHT22;32073;49.166;8.076;2022-09-03T19:36:59;22.90;63.20
46366;DHT22;32073;49.166;8.076;2022-09-03T19:41:49;22.90;63.20
46366;DHT22;32073;49.166;8.076;2022-09-03T19:46:47;22.90;63.10
46366;DHT22;32073;49.166;8.076;2022-09-03T19:51:21;22.80;63.20
46366;DHT22;32073;49.166;8.076;2022-09-03T19:55:51;22.80;63.10
46366;DHT22;32073;49.166;8.076;2022-09-03T20:00:12;22.70;62.80
46366;DHT22;32073;49.166;8.076;2022-09-03T20:04:40;22.70;62.80
46366;DHT22;32073;49.166;8.076;2022-09-03T20:09:09;22.60;63.20
46366;DHT22;32073;49.166;8.076;2022-09-03T20:13:28;22.50;63.00
46366;DHT22;32073;49.166;8.076;2022-09-03T20:18:22;22.50;62.90
46366;DHT22;32073;49.166;8.076;2022-09-03T20:23:02;22.40;63.30
46366;DHT22;32073;49.166;8.076;2022-09-03T20:50:31;22.10;63.40
46366;DHT22;32073;49.166;8.076;2022-09-03T20:55:04;22.00;63.40
46366;DHT22;32073;49.166;8.076;2022-09-03T21:25:30;21.60;63.40
46366;DHT22;32073;49.166;8.076;2022-09-03T21:29:45;21.50;63.40
46366;DHT22;32073;49.166;8.076;2022-09-03T21:34:05;21.50;63.40
46366;DHT22;32073;49.166;8.076;2022-09-03T21:38:16;21.40;63.30
46366;DHT22;32073;49.166;8.076;2022-09-03T21:42:39;21.40;63.50
46366;DHT22;32073;49.166;8.076;2022-09-03T21:46:58;21.30;63.70
46366;DHT22;32073;49.166;8.076;2022-09-03T21:51:51;21.30;63.70
46366;DHT22;32073;49.166;8.076;2022-09-03T22:04:08;21.10;63.50
46366;DHT22;32073;49.166;8.076;2022-09-03T22:08:34;21.10;63.50
46366;DHT22;32073;49.166;8.076;2022-09-03T22:17:07;21.00;64.00
46366;DHT22;32073;49.166;8.076;2022-09-03T22:21:29;21.00;63.90
46366;DHT22;32073;49.166;8.076;2022-09-03T22:25:58;20.90;63.90
46366;DHT22;32073;49.166;8.076;2022-09-03T22:30:08;20.90;64.10
46366;DHT22;32073;49.166;8.076;2022-09-03T22:34:35;20.80;64.20
46366;DHT22;32073;49.166;8.076;2022-09-03T22:38:59;20.90;63.60
46366;DHT22;32073;49.166;8.076;2022-09-03T22:47:42;20.70;64.40
46366;DHT22;32073;49.166;8.076;2022-09-03T22:56:29;20.70;64.40
46366;DHT22;32073;49.166;8.076;2022-09-03T23:00:42;20.60;64.40
46366;DHT22;32073;49.166;8.076;2022-09-03T23:09:13;20.60;64.90
46366;DHT22;32073;49.166;8.076;2022-09-03T23:13:20;20.50;64.60
46366;DHT22;32073;49.166;8.076;2022-09-03T23:17:41;20.60;64.30
46366;DHT22;32073;49.166;8.076;2022-09-03T23:21:53;20.60;64.30
46366;DHT22;32073;49.166;8.076;2022-09-03T23:30:27;20.50;64.80
46366;DHT22;32073;49.166;8.076;2022-09-03T23:34:28;20.50;64.50
46366;DHT22;32073;49.166;8.076;2022-09-03T23:38:45;20.40;64.60
46366;DHT22;32073;49.166;8.076;2022-09-03T23:43:19;20.40;65.10
46366;DHT22;32073;49.166;8.076;2022-09-03T23:47:41;20.40;65.10
46366;DHT22;32073;49.166;8.076;2022-09-03T23:56:48;20.40;65.20
